createdAt,value
2022-08-23T07:17:20.674Z,22.35
2022-08-23T07:19:49.156Z,22.30
2022-08-23T07:22:28.081Z,22.28
2022-08-23T07:25:14.993Z,22.25
2022-08-23T07:28:11.741Z,22.23
2022-08-23T07:30:51.890Z,22.24
2022-08-23T07:33:23.018Z,22.22
2022-08-23T07:36:35.967Z,22.20
2022-08-23T07:39:10.379Z,22.17
2022-08-23T07:41:41.022Z,22.18
2022-08-23T07:44:12.857Z,22.16
2022-08-23T07:46:46.942Z,22.16
2022-08-23T07:49:16.385Z,22.16
2022-08-23T07:51:52.853Z,22.16
2022-08-23T07:54:33.263Z,22.18
2022-08-23T07:57:21.893Z,22.20
2022-08-23T08:00:05.268Z,22.26
2022-08-23T08:02:47.289Z,22.36
2022-08-23T08:05:23.383Z,22.47
2022-08-23T08:07:51.556Z,22.57
2022-08-23T08:10:21.346Z,22.65
2022-08-23T08:12:49.926Z,22.71
2022-08-23T08:15:23.229Z,22.75
2022-08-23T08:18:05.728Z,22.80
2022-08-23T08:20:52.538Z,22.83
2022-08-23T08:23:43.880Z,22.86
2022-08-23T08:26:50.941Z,22.91
2022-08-23T08:29:25.492Z,22.94
2022-08-23T08:31:56.000Z,22.95
2022-08-23T08:34:23.715Z,22.98
2022-08-23T08:36:58.319Z,22.99
2022-08-23T08:39:29.221Z,23.00
2022-08-23T08:42:34.339Z,23.00
2022-08-23T08:45:16.255Z,23.04
2022-08-23T08:47:50.776Z,23.06
2022-08-23T08:50:25.942Z,23.08
2022-08-23T08:53:18.648Z,23.05
2022-08-23T08:56:33.079Z,23.02
2022-08-23T08:59:10.598Z,23.02
2022-08-23T09:01:41.498Z,23.01
2022-08-23T09:04:13.108Z,23.02
2022-08-23T09:07:31.612Z,23.04
2022-08-23T09:10:10.183Z,23.05
2022-08-23T09:13:06.101Z,23.08
2022-08-23T09:16:17.519Z,23.13
2022-08-23T09:18:54.156Z,23.16
2022-08-23T09:21:23.956Z,23.23
2022-08-23T09:24:00.579Z,23.30
2022-08-23T09:27:00.492Z,23.44
2022-08-23T09:29:42.262Z,23.60
2022-08-23T09:32:38.467Z,23.72
2022-08-23T09:35:13.932Z,23.88
2022-08-23T09:38:03.478Z,24.03
2022-08-23T09:40:44.685Z,24.17
2022-08-23T09:43:28.567Z,24.24
2022-08-23T09:46:00.428Z,24.37
2022-08-23T09:48:39.346Z,24.50
2022-08-23T09:51:29.057Z,24.57
2022-08-23T09:54:22.767Z,24.69
2022-08-23T09:56:57.000Z,24.79
2022-08-23T09:59:31.389Z,24.88
2022-08-23T10:02:23.741Z,24.93
2022-08-23T10:05:06.944Z,24.95
2022-08-23T10:07:59.252Z,24.99
2022-08-23T10:10:56.236Z,25.01
2022-08-23T10:13:33.850Z,25.10
2022-08-23T10:16:11.128Z,25.16
2022-08-23T10:19:34.313Z,25.18
2022-08-23T10:22:25.707Z,25.25
2022-08-23T10:25:42.537Z,25.32
2022-08-23T10:29:02.966Z,25.49
2022-08-23T10:32:08.370Z,25.75
2022-08-23T10:35:09.631Z,26.03
2022-08-23T10:37:55.435Z,26.25
2022-08-23T10:40:34.290Z,26.35
2022-08-23T10:43:14.631Z,26.41
2022-08-23T10:45:46.387Z,26.53
2022-08-23T10:48:59.851Z,26.69
2022-08-23T10:51:42.984Z,26.77
2022-08-23T10:54:33.886Z,26.92
2022-08-23T10:57:14.883Z,27.09
2022-08-23T10:59:55.116Z,27.23
2022-08-23T11:02:55.229Z,27.35
2022-08-23T11:06:00.245Z,27.52
2022-08-23T11:08:47.896Z,27.42
2022-08-23T11:12:17.551Z,27.41
2022-08-23T11:17:55.422Z,27.34
2022-08-23T11:21:10.966Z,27.31
2022-08-23T11:24:16.631Z,27.28
2022-08-23T11:27:24.472Z,27.32
2022-08-23T11:31:04.892Z,27.44
2022-08-23T11:33:55.080Z,27.50
2022-08-23T11:36:59.095Z,27.60
2022-08-23T11:39:48.060Z,27.68
2022-08-23T11:43:03.727Z,27.68
2022-08-23T11:45:51.343Z,27.74
2022-08-23T11:48:20.157Z,27.71
2022-08-23T11:51:19.906Z,27.59
2022-08-23T11:54:16.040Z,27.31
2022-08-23T11:57:08.652Z,27.07
2022-08-23T11:59:58.637Z,26.82
2022-08-23T12:03:07.388Z,26.59
2022-08-23T12:05:50.527Z,26.45
2022-08-23T12:08:24.135Z,26.34
2022-08-23T12:10:52.977Z,26.21
2022-08-23T12:13:24.325Z,26.16
2022-08-23T12:16:49.745Z,26.07
2022-08-23T12:20:06.749Z,25.98
2022-08-23T12:23:03.761Z,25.91
2022-08-23T12:25:36.185Z,25.84
2022-08-23T12:28:29.985Z,25.90
2022-08-23T12:31:24.991Z,25.98
2022-08-23T12:34:21.220Z,26.18
2022-08-23T12:37:12.773Z,26.59
2022-08-23T12:40:00.535Z,27.24
2022-08-23T12:42:36.579Z,27.87
2022-08-23T12:45:21.636Z,28.28
2022-08-23T12:48:02.965Z,28.47
2022-08-23T12:50:43.598Z,28.35
2022-08-23T12:53:30.853Z,28.08
2022-08-23T12:56:08.464Z,27.88
2022-08-23T12:58:42.190Z,27.90
2022-08-23T13:01:48.780Z,28.12
2022-08-23T13:04:22.832Z,28.31
2022-08-23T13:06:57.688Z,28.36
2022-08-23T13:09:39.667Z,28.27
2022-08-23T13:12:20.648Z,28.26
2022-08-23T13:14:52.080Z,28.67
2022-08-23T13:17:27.091Z,29.05
2022-08-23T13:20:10.230Z,29.29
2022-08-23T13:22:54.902Z,29.59
2022-08-23T13:25:43.249Z,29.63
2022-08-23T13:28:31.240Z,29.53
2022-08-23T13:31:08.150Z,29.54
2022-08-23T13:33:37.430Z,29.72
2022-08-23T13:36:21.291Z,29.83
2022-08-23T13:38:50.639Z,30.22
2022-08-23T13:41:38.668Z,30.88
2022-08-23T13:44:09.018Z,31.29
2022-08-23T13:46:45.794Z,31.54
2022-08-23T13:49:20.432Z,31.62
2022-08-23T13:52:32.977Z,31.61
2022-08-23T13:54:50.937Z,31.71
2022-08-23T13:57:22.476Z,31.84
2022-08-23T13:59:54.300Z,32.01
2022-08-23T14:02:24.149Z,32.23
2022-08-23T14:04:55.658Z,32.23
2022-08-23T14:07:24.592Z,32.01
2022-08-23T14:09:55.187Z,31.74
2022-08-23T14:12:28.721Z,31.63
2022-08-23T14:14:59.148Z,31.49
2022-08-23T14:17:28.684Z,31.32
2022-08-23T14:22:46.096Z,30.88
2022-08-23T14:25:15.517Z,30.59
2022-08-23T14:27:49.649Z,30.49
2022-08-23T14:30:29.481Z,30.50
2022-08-23T14:33:00.332Z,30.54
2022-08-23T14:35:30.176Z,30.51
2022-08-23T14:38:03.757Z,30.45
2022-08-23T14:40:37.741Z,30.24
2022-08-23T14:43:06.347Z,30.06
2022-08-23T14:45:35.134Z,29.88
2022-08-23T14:48:06.883Z,29.88
2022-08-23T14:50:35.848Z,29.95
2022-08-23T14:53:05.691Z,29.82
2022-08-23T14:55:34.896Z,29.55
2022-08-23T14:58:04.255Z,29.32
2022-08-23T15:00:36.420Z,29.11
2022-08-23T15:03:09.941Z,28.97
2022-08-23T15:05:39.347Z,28.97
2022-08-23T15:08:08.114Z,28.88
2022-08-23T15:12:55.403Z,28.73
2022-08-23T15:13:33.384Z,28.61
2022-08-23T15:16:09.425Z,28.51
2022-08-23T15:18:44.737Z,28.11
2022-08-23T15:21:22.083Z,27.85
2022-08-23T15:23:54.019Z,27.53
2022-08-23T15:26:31.846Z,27.21
2022-08-23T15:29:09.421Z,27.03
2022-08-23T15:31:38.308Z,26.85
2022-08-23T15:34:12.793Z,26.66
2022-08-23T15:36:44.970Z,26.55
2022-08-23T15:39:13.876Z,26.50
2022-08-23T15:41:45.491Z,26.48
2022-08-23T15:44:17.470Z,26.48
2022-08-23T15:46:48.691Z,26.33
2022-08-23T15:49:18.794Z,26.16
2022-08-23T15:51:47.875Z,25.98
2022-08-23T15:54:19.841Z,25.78
2022-08-23T15:56:50.334Z,25.49
2022-08-23T15:59:21.699Z,25.21
2022-08-23T16:01:50.457Z,25.00
2022-08-23T16:04:19.378Z,24.86
2022-08-23T16:06:48.466Z,24.77
2022-08-23T16:09:23.100Z,24.64
2022-08-23T16:11:51.924Z,24.47
2022-08-23T16:14:20.571Z,24.32
2022-08-23T16:16:49.319Z,24.21
2022-08-23T16:19:18.253Z,24.07
2022-08-23T16:21:53.257Z,23.94
2022-08-23T16:24:31.770Z,23.89
2022-08-23T16:27:10.440Z,23.82
2022-08-23T16:29:46.486Z,23.75
2022-08-23T16:32:15.340Z,23.66
2022-08-23T16:34:44.159Z,23.61
2022-08-23T16:37:12.958Z,23.58
2022-08-23T16:39:46.763Z,23.56
2022-08-23T16:42:16.020Z,23.51
2022-08-23T16:44:51.188Z,23.47
2022-08-23T16:47:23.428Z,23.43
2022-08-23T16:49:56.007Z,23.38
2022-08-23T16:52:34.687Z,23.30
2022-08-23T16:55:11.575Z,23.25
2022-08-23T16:57:41.558Z,23.19
2022-08-23T17:00:14.921Z,23.15
2022-08-23T17:02:44.402Z,23.10
2022-08-23T17:05:16.191Z,23.04
2022-08-23T17:07:47.941Z,22.98
2022-08-23T17:10:19.797Z,22.91
2022-08-23T17:12:54.436Z,22.86
2022-08-23T17:15:34.372Z,22.82
2022-08-23T17:18:06.553Z,22.80
2022-08-23T17:20:40.753Z,22.78
2022-08-23T17:23:18.861Z,22.75
2022-08-23T17:26:00.244Z,22.73
2022-08-23T17:28:34.908Z,22.71
2022-08-23T17:31:11.146Z,22.68
2022-08-23T17:34:03.546Z,22.66
2022-08-23T17:36:48.674Z,22.64
2022-08-23T17:39:29.211Z,22.64
2022-08-23T17:42:00.709Z,22.62
2022-08-23T17:44:32.872Z,22.59
2022-08-23T17:47:07.634Z,22.56
2022-08-23T17:49:42.729Z,22.54
2022-08-23T17:52:17.687Z,22.50
2022-08-23T17:54:46.649Z,22.49
2022-08-23T17:57:18.763Z,22.46
2022-08-23T17:59:53.942Z,22.49
2022-08-23T18:02:25.014Z,22.49
2022-08-23T18:04:54.388Z,22.48
2022-08-23T18:07:23.284Z,22.47
2022-08-23T18:09:55.250Z,22.48
2022-08-23T18:12:44.145Z,22.49
2022-08-23T18:15:16.019Z,22.51
2022-08-23T18:17:45.194Z,22.54
2022-08-23T18:20:17.119Z,22.54
2022-08-23T18:22:48.756Z,22.53
2022-08-23T18:25:17.468Z,22.51
2022-08-23T18:28:08.582Z,22.48
2022-08-23T18:30:52.317Z,22.44
2022-08-23T18:33:31.714Z,22.42
2022-08-23T18:36:09.591Z,22.42
2022-08-23T18:38:47.909Z,22.40
2022-08-23T18:41:17.719Z,22.41
2022-08-23T18:43:54.426Z,22.40
2022-08-23T18:46:23.625Z,22.41
2022-08-23T18:48:59.440Z,22.39
2022-08-23T18:51:28.499Z,22.38
2022-08-23T18:54:06.611Z,22.36
2022-08-23T18:56:38.131Z,22.34
2022-08-23T18:59:27.771Z,22.30
2022-08-23T19:02:22.675Z,22.26
2022-08-23T19:04:57.578Z,22.23
2022-08-23T19:07:36.773Z,22.21
2022-08-23T19:10:10.350Z,22.18
2022-08-23T19:12:53.945Z,22.16
2022-08-23T19:15:29.050Z,22.13
2022-08-23T19:18:04.079Z,22.11
2022-08-23T19:20:44.472Z,22.09
2022-08-23T19:23:28.434Z,22.05
2022-08-23T19:26:15.239Z,22.02
2022-08-23T19:28:48.513Z,21.99
2022-08-23T19:31:37.235Z,21.97
2022-08-23T19:34:11.970Z,21.94
2022-08-23T19:37:01.475Z,21.91
2022-08-23T19:39:45.725Z,21.90
2022-08-23T19:42:21.289Z,21.88
2022-08-23T19:44:58.972Z,21.87
2022-08-23T19:47:31.106Z,21.87
2022-08-23T19:50:10.647Z,21.85
2022-08-23T19:52:51.906Z,21.82
2022-08-23T19:55:24.095Z,21.81
2022-08-23T19:57:56.882Z,21.80
2022-08-23T20:00:31.748Z,21.80
2022-08-23T20:03:19.088Z,21.80
2022-08-23T20:05:50.391Z,21.79
2022-08-23T20:08:39.794Z,21.78
2022-08-23T20:11:37.173Z,21.77
2022-08-23T20:14:16.238Z,21.76
2022-08-23T20:16:51.379Z,21.76
2022-08-23T20:19:25.999Z,21.75
2022-08-23T20:22:16.241Z,21.73
2022-08-23T20:24:52.885Z,21.74
2022-08-23T20:27:30.732Z,21.75
2022-08-23T20:30:03.649Z,21.74
2022-08-23T20:32:37.867Z,21.72
2022-08-23T20:35:15.736Z,21.73
2022-08-23T20:37:50.594Z,21.75
2022-08-23T20:40:26.216Z,21.76
2022-08-23T20:42:57.937Z,21.75
2022-08-23T20:45:27.476Z,21.76
2022-08-23T20:47:59.675Z,21.76
2022-08-23T20:50:31.819Z,21.77
2022-08-23T20:53:28.995Z,21.77
2022-08-23T20:56:09.049Z,21.77
2022-08-23T20:58:38.554Z,21.78
2022-08-23T21:01:10.175Z,21.77
2022-08-23T21:03:43.995Z,21.78
2022-08-23T21:06:28.368Z,21.79
2022-08-23T21:09:12.451Z,21.79
2022-08-23T21:11:44.117Z,21.80
2022-08-23T21:14:17.273Z,21.81
2022-08-23T21:16:52.910Z,21.81
2022-08-23T21:19:39.310Z,21.81
2022-08-23T21:22:18.239Z,21.80
2022-08-23T21:24:47.386Z,21.80
2022-08-23T21:27:25.929Z,21.80
2022-08-23T21:29:57.977Z,21.80
2022-08-23T21:32:57.449Z,21.79
2022-08-23T21:35:32.571Z,21.78
2022-08-23T21:38:15.866Z,21.78
2022-08-23T21:40:58.290Z,21.78
2022-08-23T21:43:39.679Z,21.77
2022-08-23T21:46:38.519Z,21.77
2022-08-23T21:49:18.710Z,21.77
2022-08-23T21:52:18.365Z,21.75
2022-08-23T21:55:02.080Z,21.73
2022-08-23T21:57:46.104Z,21.73
2022-08-23T22:00:33.857Z,21.70
2022-08-23T22:03:35.279Z,21.70
2022-08-23T22:06:38.317Z,21.69
2022-08-23T22:09:31.699Z,21.69
2022-08-23T22:12:25.041Z,21.68
2022-08-23T22:15:30.702Z,21.67
2022-08-23T22:18:18.536Z,21.66
2022-08-23T22:21:25.142Z,21.64
2022-08-23T22:23:53.557Z,21.61
2022-08-23T22:26:49.151Z,21.57
2022-08-23T22:29:26.333Z,21.54
2022-08-23T22:32:04.625Z,21.53
2022-08-23T22:34:33.373Z,21.53
2022-08-23T22:37:02.075Z,21.52
2022-08-23T22:39:46.259Z,21.51
2022-08-23T22:42:20.550Z,21.52
2022-08-23T22:45:00.811Z,21.52
2022-08-23T22:47:38.731Z,21.51
2022-08-23T22:50:15.164Z,21.48
2022-08-23T22:52:54.793Z,21.43
2022-08-23T22:55:24.017Z,21.42
2022-08-23T22:57:55.748Z,21.42
2022-08-23T23:00:27.887Z,21.40
2022-08-23T23:03:13.513Z,21.37
2022-08-23T23:05:49.937Z,21.36
2022-08-23T23:08:30.119Z,21.35
2022-08-23T23:11:06.278Z,21.33
2022-08-23T23:13:42.056Z,21.30
2022-08-23T23:16:17.991Z,21.27
2022-08-23T23:19:12.072Z,21.25
2022-08-23T23:21:47.801Z,21.20
2022-08-23T23:24:29.389Z,21.16
2022-08-23T23:27:12.303Z,21.14
2022-08-23T23:29:44.075Z,21.14
2022-08-23T23:32:24.430Z,21.12
2022-08-23T23:34:58.896Z,21.07
2022-08-23T23:37:32.618Z,21.05
2022-08-23T23:40:21.915Z,20.99
2022-08-23T23:43:13.142Z,20.92
2022-08-23T23:46:16.810Z,20.88
2022-08-23T23:48:51.420Z,20.84
2022-08-23T23:51:28.774Z,20.78
2022-08-23T23:54:04.404Z,20.73
2022-08-23T23:56:46.794Z,20.75
2022-08-23T23:59:16.510Z,20.75
